sensor_id;sensor_type;location;lat;lon;timestamp;P1;durP1;ratioP1;P2;durP2;ratioP2
11962;SDS011;62678;52.130;5.584;2022-10-03T00:02:33;17.88;;;6.45;;
11962;SDS011;62678;52.130;5.584;2022-10-03T00:05:31;25.67;;;6.70;;
11962;SDS011;62678;52.130;5.584;2022-10-03T00:08:12;21.10;;;6.47;;
11962;SDS011;62678;52.130;5.584;2022-10-03T00:10:50;18.10;;;6.25;;
11962;SDS011;62678;52.130;5.584;2022-10-03T00:13:28;18.35;;;6.20;;
11962;SDS011;62678;52.130;5.584;2022-10-03T00:16:05;29.33;;;7.22;;
11962;SDS011;62678;52.130;5.584;2022-10-03T00:18:40;27.75;;;6.93;;
11962;SDS011;62678;52.130;5.584;2022-10-03T00:21:19;24.70;;;5.78;;
11962;SDS011;62678;52.130;5.584;2022-10-03T00:24:01;19.80;;;5.93;;
11962;SDS011;62678;52.130;5.584;2022-10-03T00:26:41;18.58;;;6.20;;
11962;SDS011;62678;52.130;5.584;2022-10-03T00:32:18;20.33;;;5.95;;
11962;SDS011;62678;52.130;5.584;2022-10-03T00:35:01;13.40;;;5.18;;
11962;SDS011;62678;52.130;5.584;2022-10-03T00:37:39;17.75;;;5.78;;
11962;SDS011;62678;52.130;5.584;2022-10-03T00:40:26;16.55;;;5.65;;
11962;SDS011;62678;52.130;5.584;2022-10-03T00:46:25;21.20;;;5.60;;
11962;SDS011;62678;52.130;5.584;2022-10-03T00:49:43;14.57;;;5.68;;
11962;SDS011;62678;52.130;5.584;2022-10-03T00:52:41;16.13;;;5.43;;
11962;SDS011;62678;52.130;5.584;2022-10-03T00:55:32;15.30;;;5.60;;
11962;SDS011;62678;52.130;5.584;2022-10-03T00:58:17;16.40;;;5.10;;
11962;SDS011;62678;52.130;5.584;2022-10-03T01:01:06;13.25;;;5.38;;
11962;SDS011;62678;52.130;5.584;2022-10-03T01:03:50;19.27;;;6.25;;
11962;SDS011;62678;52.130;5.584;2022-10-03T01:06:25;13.50;;;5.30;;
11962;SDS011;62678;52.130;5.584;2022-10-03T01:09:11;15.65;;;6.00;;
11962;SDS011;62678;52.130;5.584;2022-10-03T01:12:10;14.63;;;5.65;;
11962;SDS011;62678;52.130;5.584;2022-10-03T01:15:01;16.63;;;5.88;;
11962;SDS011;62678;52.130;5.584;2022-10-03T01:17:37;22.95;;;6.28;;
11962;SDS011;62678;52.130;5.584;2022-10-03T01:20:17;14.85;;;5.72;;
11962;SDS011;62678;52.130;5.584;2022-10-03T01:25:58;14.45;;;5.93;;
11962;SDS011;62678;52.130;5.584;2022-10-03T01:28:42;12.15;;;4.97;;
11962;SDS011;62678;52.130;5.584;2022-10-03T01:31:37;12.57;;;4.95;;
11962;SDS011;62678;52.130;5.584;2022-10-03T01:34:11;17.00;;;5.75;;
11962;SDS011;62678;52.130;5.584;2022-10-03T01:36:46;10.93;;;4.90;;
11962;SDS011;62678;52.130;5.584;2022-10-03T01:39:22;12.65;;;5.35;;
11962;SDS011;62678;52.130;5.584;2022-10-03T01:41:54;15.55;;;5.05;;
11962;SDS011;62678;52.130;5.584;2022-10-03T01:44:27;11.63;;;4.82;;
11962;SDS011;62678;52.130;5.584;2022-10-03T01:47:06;11.32;;;5.53;;
11962;SDS011;62678;52.130;5.584;2022-10-03T01:49:41;16.83;;;5.70;;
11962;SDS011;62678;52.130;5.584;2022-10-03T01:52:14;14.93;;;5.18;;
11962;SDS011;62678;52.130;5.584;2022-10-03T01:54:49;9.82;;;4.45;;
11962;SDS011;62678;52.130;5.584;2022-10-03T01:57:24;11.85;;;4.63;;
11962;SDS011;62678;52.130;5.584;2022-10-03T02:00:03;15.07;;;5.05;;
11962;SDS011;62678;52.130;5.584;2022-10-03T02:02:34;18.83;;;5.43;;
11962;SDS011;62678;52.130;5.584;2022-10-03T02:05:08;14.35;;;5.63;;
11962;SDS011;62678;52.130;5.584;2022-10-03T02:07:42;11.18;;;4.82;;
11962;SDS011;62678;52.130;5.584;2022-10-03T02:10:19;12.80;;;5.88;;
11962;SDS011;62678;52.130;5.584;2022-10-03T02:12:55;16.75;;;6.03;;
11962;SDS011;62678;52.130;5.584;2022-10-03T02:15:31;23.13;;;6.25;;
11962;SDS011;62678;52.130;5.584;2022-10-03T02:18:08;14.55;;;6.07;;
11962;SDS011;62678;52.130;5.584;2022-10-03T02:20:42;12.27;;;6.03;;
11962;SDS011;62678;52.130;5.584;2022-10-03T02:23:21;10.48;;;5.25;;
11962;SDS011;62678;52.130;5.584;2022-10-03T02:25:53;22.15;;;6.20;;
11962;SDS011;62678;52.130;5.584;2022-10-03T02:28:35;15.93;;;5.65;;
11962;SDS011;62678;52.130;5.584;2022-10-03T02:31:41;12.48;;;5.78;;
11962;SDS011;62678;52.130;5.584;2022-10-03T02:34:31;14.90;;;5.93;;
11962;SDS011;62678;52.130;5.584;2022-10-03T02:37:31;16.40;;;6.15;;
11962;SDS011;62678;52.130;5.584;2022-10-03T02:40:29;13.43;;;5.40;;
11962;SDS011;62678;52.130;5.584;2022-10-03T02:43:17;22.00;;;6.18;;
11962;SDS011;62678;52.130;5.584;2022-10-03T02:46:08;9.65;;;5.85;;
11962;SDS011;62678;52.130;5.584;2022-10-03T02:49:01;11.75;;;6.20;;
11962;SDS011;62678;52.130;5.584;2022-10-03T02:51:53;14.18;;;6.90;;
11962;SDS011;62678;52.130;5.584;2022-10-03T02:54:42;16.48;;;7.65;;
11962;SDS011;62678;52.130;5.584;2022-10-03T02:57:42;19.42;;;6.18;;
11962;SDS011;62678;52.130;5.584;2022-10-03T03:00:45;14.25;;;6.07;;
11962;SDS011;62678;52.130;5.584;2022-10-03T03:03:39;16.67;;;6.90;;
11962;SDS011;62678;52.130;5.584;2022-10-03T03:09:39;18.05;;;6.32;;
11962;SDS011;62678;52.130;5.584;2022-10-03T03:12:32;11.55;;;5.05;;
11962;SDS011;62678;52.130;5.584;2022-10-03T03:18:32;10.82;;;6.25;;
11962;SDS011;62678;52.130;5.584;2022-10-03T03:21:17;11.85;;;6.03;;
11962;SDS011;62678;52.130;5.584;2022-10-03T03:23:57;12.63;;;5.63;;
11962;SDS011;62678;52.130;5.584;2022-10-03T03:26:41;18.23;;;6.15;;
11962;SDS011;62678;52.130;5.584;2022-10-03T03:29:20;13.95;;;5.78;;
11962;SDS011;62678;52.130;5.584;2022-10-03T03:31:56;13.00;;;6.15;;
11962;SDS011;62678;52.130;5.584;2022-10-03T03:34:33;13.05;;;6.40;;
11962;SDS011;62678;52.130;5.584;2022-10-03T03:37:09;10.10;;;5.03;;
11962;SDS011;62678;52.130;5.584;2022-10-03T03:39:51;10.75;;;5.07;;
11962;SDS011;62678;52.130;5.584;2022-10-03T03:45:34;13.32;;;5.28;;
11962;SDS011;62678;52.130;5.584;2022-10-03T03:48:14;12.10;;;5.05;;
11962;SDS011;62678;52.130;5.584;2022-10-03T03:51:06;9.57;;;4.93;;
11962;SDS011;62678;52.130;5.584;2022-10-03T03:53:50;13.02;;;5.53;;
11962;SDS011;62678;52.130;5.584;2022-10-03T03:56:31;14.05;;;5.22;;
11962;SDS011;62678;52.130;5.584;2022-10-03T03:59:20;13.07;;;5.30;;
11962;SDS011;62678;52.130;5.584;2022-10-03T04:01:57;9.88;;;5.18;;
11962;SDS011;62678;52.130;5.584;2022-10-03T04:04:39;10.93;;;4.75;;
11962;SDS011;62678;52.130;5.584;2022-10-03T04:07:19;12.20;;;5.32;;
11962;SDS011;62678;52.130;5.584;2022-10-03T04:10:11;13.45;;;5.60;;
11962;SDS011;62678;52.130;5.584;2022-10-03T04:16:21;13.20;;;5.75;;
11962;SDS011;62678;52.130;5.584;2022-10-03T04:19:23;14.52;;;5.50;;
11962;SDS011;62678;52.130;5.584;2022-10-03T04:22:07;14.90;;;6.65;;
11962;SDS011;62678;52.130;5.584;2022-10-03T04:27:46;12.10;;;6.03;;
11962;SDS011;62678;52.130;5.584;2022-10-03T04:30:37;14.27;;;6.40;;
11962;SDS011;62678;52.130;5.584;2022-10-03T04:33:20;15.00;;;5.93;;
11962;SDS011;62678;52.130;5.584;2022-10-03T04:39:08;12.13;;;5.88;;
11962;SDS011;62678;52.130;5.584;2022-10-03T04:41:41;13.88;;;5.80;;
11962;SDS011;62678;52.130;5.584;2022-10-03T04:44:25;10.90;;;5.72;;
11962;SDS011;62678;52.130;5.584;2022-10-03T04:47:03;10.55;;;5.55;;
11962;SDS011;62678;52.130;5.584;2022-10-03T04:49:36;12.48;;;6.53;;
11962;SDS011;62678;52.130;5.584;2022-10-03T04:52:12;14.65;;;8.27;;
11962;SDS011;62678;52.130;5.584;2022-10-03T04:54:46;16.70;;;8.43;;
11962;SDS011;62678;52.130;5.584;2022-10-03T04:57:24;18.88;;;7.18;;
11962;SDS011;62678;52.130;5.584;2022-10-03T05:00:05;12.60;;;6.50;;
11962;SDS011;62678;52.130;5.584;2022-10-03T05:02:49;13.00;;;6.18;;
11962;SDS011;62678;52.130;5.584;2022-10-03T05:05:28;15.50;;;7.28;;
11962;SDS011;62678;52.130;5.584;2022-10-03T05:08:12;9.52;;;5.68;;
11962;SDS011;62678;52.130;5.584;2022-10-03T05:10:49;13.43;;;6.13;;
11962;SDS011;62678;52.130;5.584;2022-10-03T05:13:21;14.48;;;6.05;;
11962;SDS011;62678;52.130;5.584;2022-10-03T05:15:58;13.13;;;5.47;;
11962;SDS011;62678;52.130;5.584;2022-10-03T05:18:33;13.60;;;5.50;;
11962;SDS011;62678;52.130;5.584;2022-10-03T05:21:08;14.57;;;6.45;;
11962;SDS011;62678;52.130;5.584;2022-10-03T05:23:51;14.95;;;5.90;;
11962;SDS011;62678;52.130;5.584;2022-10-03T05:26:30;15.07;;;6.18;;
11962;SDS011;62678;52.130;5.584;2022-10-03T05:29:09;11.77;;;6.30;;
11962;SDS011;62678;52.130;5.584;2022-10-03T05:31:45;14.75;;;6.38;;
11962;SDS011;62678;52.130;5.584;2022-10-03T05:34:22;14.10;;;6.45;;
11962;SDS011;62678;52.130;5.584;2022-10-03T05:39:51;17.25;;;6.45;;
11962;SDS011;62678;52.130;5.584;2022-10-03T05:42:28;15.95;;;6.20;;
11962;SDS011;62678;52.130;5.584;2022-10-03T05:45:03;17.63;;;6.57;;
11962;SDS011;62678;52.130;5.584;2022-10-03T05:47:39;12.48;;;5.90;;
11962;SDS011;62678;52.130;5.584;2022-10-03T05:50:31;14.85;;;6.72;;
11962;SDS011;62678;52.130;5.584;2022-10-03T05:53:10;15.88;;;7.60;;
11962;SDS011;62678;52.130;5.584;2022-10-03T05:56:00;12.95;;;7.20;;
11962;SDS011;62678;52.130;5.584;2022-10-03T06:01:38;16.70;;;7.03;;
11962;SDS011;62678;52.130;5.584;2022-10-03T06:04:40;16.90;;;6.90;;
11962;SDS011;62678;52.130;5.584;2022-10-03T06:07:26;10.93;;;6.32;;
11962;SDS011;62678;52.130;5.584;2022-10-03T06:13:10;12.90;;;7.25;;
11962;SDS011;62678;52.130;5.584;2022-10-03T06:15:58;17.35;;;7.00;;
11962;SDS011;62678;52.130;5.584;2022-10-03T06:21:56;16.30;;;7.13;;
11962;SDS011;62678;52.130;5.584;2022-10-03T06:24:59;14.75;;;7.40;;
11962;SDS011;62678;52.130;5.584;2022-10-03T06:31:02;26.80;;;8.15;;
11962;SDS011;62678;52.130;5.584;2022-10-03T06:34:06;23.33;;;8.52;;
11962;SDS011;62678;52.130;5.584;2022-10-03T06:36:46;42.03;;;11.30;;
11962;SDS011;62678;52.130;5.584;2022-10-03T06:40:03;44.65;;;11.07;;
11962;SDS011;62678;52.130;5.584;2022-10-03T06:43:12;45.53;;;11.88;;
11962;SDS011;62678;52.130;5.584;2022-10-03T06:49:08;24.48;;;10.70;;
11962;SDS011;62678;52.130;5.584;2022-10-03T06:52:26;19.92;;;9.75;;
11962;SDS011;62678;52.130;5.584;2022-10-03T06:55:25;23.33;;;10.77;;
11962;SDS011;62678;52.130;5.584;2022-10-03T06:58:26;26.45;;;9.50;;
11962;SDS011;62678;52.130;5.584;2022-10-03T07:01:16;19.50;;;9.43;;
11962;SDS011;62678;52.130;5.584;2022-10-03T07:04:02;20.05;;;9.60;;
11962;SDS011;62678;52.130;5.584;2022-10-03T07:12:43;18.42;;;10.20;;
11962;SDS011;62678;52.130;5.584;2022-10-03T07:18:40;28.10;;;9.30;;
11962;SDS011;62678;52.130;5.584;2022-10-03T07:21:30;21.00;;;9.52;;
11962;SDS011;62678;52.130;5.584;2022-10-03T07:27:18;22.27;;;9.38;;
11962;SDS011;62678;52.130;5.584;2022-10-03T07:30:12;16.73;;;8.68;;
11962;SDS011;62678;52.130;5.584;2022-10-03T07:35:52;18.00;;;8.23;;
11962;SDS011;62678;52.130;5.584;2022-10-03T07:39:13;17.65;;;8.07;;
11962;SDS011;62678;52.130;5.584;2022-10-03T07:42:19;25.83;;;9.15;;
11962;SDS011;62678;52.130;5.584;2022-10-03T07:48:08;22.15;;;7.40;;
11962;SDS011;62678;52.130;5.584;2022-10-03T07:50:57;20.13;;;6.93;;
11962;SDS011;62678;52.130;5.584;2022-10-03T07:53:41;18.48;;;7.53;;
11962;SDS011;62678;52.130;5.584;2022-10-03T07:56:41;20.17;;;7.43;;
11962;SDS011;62678;52.130;5.584;2022-10-03T07:59:40;18.58;;;7.07;;
11962;SDS011;62678;52.130;5.584;2022-10-03T08:02:34;18.77;;;6.07;;
11962;SDS011;62678;52.130;5.584;2022-10-03T08:05:16;15.07;;;6.25;;
11962;SDS011;62678;52.130;5.584;2022-10-03T08:07:58;14.38;;;5.65;;
11962;SDS011;62678;52.130;5.584;2022-10-03T08:10:53;20.00;;;5.60;;
11962;SDS011;62678;52.130;5.584;2022-10-03T08:13:46;14.40;;;5.32;;
11962;SDS011;62678;52.130;5.584;2022-10-03T08:16:32;13.85;;;5.43;;
11962;SDS011;62678;52.130;5.584;2022-10-03T08:19:20;17.77;;;6.03;;
11962;SDS011;62678;52.130;5.584;2022-10-03T08:22:04;15.52;;;5.32;;
11962;SDS011;62678;52.130;5.584;2022-10-03T08:24:47;16.80;;;5.45;;
11962;SDS011;62678;52.130;5.584;2022-10-03T08:30:28;10.15;;;5.00;;
11962;SDS011;62678;52.130;5.584;2022-10-03T08:33:23;17.65;;;5.88;;
11962;SDS011;62678;52.130;5.584;2022-10-03T08:39:17;20.48;;;5.70;;
11962;SDS011;62678;52.130;5.584;2022-10-03T08:42:10;10.95;;;4.35;;
11962;SDS011;62678;52.130;5.584;2022-10-03T08:45:16;15.40;;;4.75;;
11962;SDS011;62678;52.130;5.584;2022-10-03T08:48:16;13.00;;;3.67;;
11962;SDS011;62678;52.130;5.584;2022-10-03T08:54:14;10.98;;;3.92;;
11962;SDS011;62678;52.130;5.584;2022-10-03T08:57:13;12.18;;;3.42;;
11962;SDS011;62678;52.130;5.584;2022-10-03T09:00:10;14.45;;;3.58;;
11962;SDS011;62678;52.130;5.584;2022-10-03T09:02:59;12.65;;;4.00;;
11962;SDS011;62678;52.130;5.584;2022-10-03T09:06:22;10.73;;;3.28;;
11962;SDS011;62678;52.130;5.584;2022-10-03T09:09:29;12.07;;;3.50;;
11962;SDS011;62678;52.130;5.584;2022-10-03T09:12:20;15.68;;;3.97;;
11962;SDS011;62678;52.130;5.584;2022-10-03T09:15:25;8.55;;;2.92;;
11962;SDS011;62678;52.130;5.584;2022-10-03T09:18:21;7.15;;;2.88;;
11962;SDS011;62678;52.130;5.584;2022-10-03T09:24:10;12.93;;;2.40;;
11962;SDS011;62678;52.130;5.584;2022-10-03T09:27:13;8.05;;;1.67;;
11962;SDS011;62678;52.130;5.584;2022-10-03T09:33:02;7.75;;;1.92;;
11962;SDS011;62678;52.130;5.584;2022-10-03T09:36:06;8.73;;;2.28;;
11962;SDS011;62678;52.130;5.584;2022-10-03T09:38:57;9.88;;;2.25;;
11962;SDS011;62678;52.130;5.584;2022-10-03T09:41:52;7.82;;;2.00;;
11962;SDS011;62678;52.130;5.584;2022-10-03T09:44:50;7.40;;;2.20;;
11962;SDS011;62678;52.130;5.584;2022-10-03T09:53:31;8.55;;;2.47;;
11962;SDS011;62678;52.130;5.584;2022-10-03T09:59:33;7.47;;;1.40;;
11962;SDS011;62678;52.130;5.584;2022-10-03T10:05:38;9.63;;;1.45;;
11962;SDS011;62678;52.130;5.584;2022-10-03T10:08:32;7.78;;;1.50;;
11962;SDS011;62678;52.130;5.584;2022-10-03T10:11:21;10.63;;;1.75;;
11962;SDS011;62678;52.130;5.584;2022-10-03T10:14:15;6.45;;;1.60;;
11962;SDS011;62678;52.130;5.584;2022-10-03T10:19:57;7.55;;;1.63;;
11962;SDS011;62678;52.130;5.584;2022-10-03T10:22:52;7.40;;;1.30;;
11962;SDS011;62678;52.130;5.584;2022-10-03T10:25:41;9.10;;;1.80;;
11962;SDS011;62678;52.130;5.584;2022-10-03T10:28:36;9.98;;;1.77;;
11962;SDS011;62678;52.130;5.584;2022-10-03T10:31:46;6.53;;;1.40;;
11962;SDS011;62678;52.130;5.584;2022-10-03T10:41:03;8.77;;;1.42;;
11962;SDS011;62678;52.130;5.584;2022-10-03T10:44:14;7.45;;;1.17;;
11962;SDS011;62678;52.130;5.584;2022-10-03T10:50:35;6.82;;;1.30;;
11962;SDS011;62678;52.130;5.584;2022-10-03T11:37:42;5.35;;;1.50;;
11962;SDS011;62678;52.130;5.584;2022-10-03T11:40:23;7.00;;;1.00;;
11962;SDS011;62678;52.130;5.584;2022-10-03T11:43:02;8.38;;;1.38;;
11962;SDS011;62678;52.130;5.584;2022-10-03T11:45:59;6.90;;;1.20;;
11962;SDS011;62678;52.130;5.584;2022-10-03T11:48:44;8.40;;;1.50;;
11962;SDS011;62678;52.130;5.584;2022-10-03T11:51:17;7.80;;;1.33;;
11962;SDS011;62678;52.130;5.584;2022-10-03T11:54:04;7.78;;;1.63;;
11962;SDS011;62678;52.130;5.584;2022-10-03T11:56:43;5.55;;;1.25;;
11962;SDS011;62678;52.130;5.584;2022-10-03T11:59:24;3.10;;;0.93;;
11962;SDS011;62678;52.130;5.584;2022-10-03T12:02:27;7.70;;;1.42;;
11962;SDS011;62678;52.130;5.584;2022-10-03T12:05:14;9.35;;;1.85;;
11962;SDS011;62678;52.130;5.584;2022-10-03T12:07:48;7.53;;;1.65;;
11962;SDS011;62678;52.130;5.584;2022-10-03T12:10:44;7.30;;;1.40;;
11962;SDS011;62678;52.130;5.584;2022-10-03T12:13:19;8.73;;;1.40;;
11962;SDS011;62678;52.130;5.584;2022-10-03T12:15:54;6.35;;;1.30;;
11962;SDS011;62678;52.130;5.584;2022-10-03T12:18:25;6.53;;;1.20;;
11962;SDS011;62678;52.130;5.584;2022-10-03T12:21:05;6.45;;;1.38;;
11962;SDS011;62678;52.130;5.584;2022-10-03T12:23:42;6.60;;;1.50;;
11962;SDS011;62678;52.130;5.584;2022-10-03T12:26:22;5.03;;;1.30;;
11962;SDS011;62678;52.130;5.584;2022-10-03T12:28:58;6.82;;;1.55;;
11962;SDS011;62678;52.130;5.584;2022-10-03T12:31:28;9.82;;;1.65;;
11962;SDS011;62678;52.130;5.584;2022-10-03T12:34:02;6.55;;;1.65;;
11962;SDS011;62678;52.130;5.584;2022-10-03T12:36:47;5.95;;;1.55;;
11962;SDS011;62678;52.130;5.584;2022-10-03T12:39:23;10.00;;;1.70;;
11962;SDS011;62678;52.130;5.584;2022-10-03T12:42:08;7.40;;;1.50;;
11962;SDS011;62678;52.130;5.584;2022-10-03T12:44:48;10.80;;;1.80;;
11962;SDS011;62678;52.130;5.584;2022-10-03T12:47:23;6.07;;;1.58;;
11962;SDS011;62678;52.130;5.584;2022-10-03T12:49:55;8.82;;;1.63;;
11962;SDS011;62678;52.130;5.584;2022-10-03T12:52:28;10.13;;;1.80;;
11962;SDS011;62678;52.130;5.584;2022-10-03T12:55:01;7.22;;;1.50;;
11962;SDS011;62678;52.130;5.584;2022-10-03T12:57:46;7.55;;;2.08;;
11962;SDS011;62678;52.130;5.584;2022-10-03T13:00:22;7.85;;;1.58;;
11962;SDS011;62678;52.130;5.584;2022-10-03T13:05:54;9.88;;;2.08;;
11962;SDS011;62678;52.130;5.584;2022-10-03T13:08:48;8.00;;;1.73;;
11962;SDS011;62678;52.130;5.584;2022-10-03T13:11:27;10.95;;;2.10;;
11962;SDS011;62678;52.130;5.584;2022-10-03T13:14:05;9.13;;;1.58;;
11962;SDS011;62678;52.130;5.584;2022-10-03T13:16:49;6.13;;;1.52;;
11962;SDS011;62678;52.130;5.584;2022-10-03T13:19:24;13.27;;;1.70;;
11962;SDS011;62678;52.130;5.584;2022-10-03T13:21:55;6.22;;;1.48;;
11962;SDS011;62678;52.130;5.584;2022-10-03T13:24:31;8.70;;;2.05;;
11962;SDS011;62678;52.130;5.584;2022-10-03T13:27:07;10.35;;;2.47;;
11962;SDS011;62678;52.130;5.584;2022-10-03T13:29:45;8.88;;;1.88;;
11962;SDS011;62678;52.130;5.584;2022-10-03T13:32:22;10.48;;;2.00;;
11962;SDS011;62678;52.130;5.584;2022-10-03T13:34:57;9.68;;;1.90;;
11962;SDS011;62678;52.130;5.584;2022-10-03T13:37:58;8.25;;;1.55;;
11962;SDS011;62678;52.130;5.584;2022-10-03T13:40:42;9.73;;;1.90;;
11962;SDS011;62678;52.130;5.584;2022-10-03T13:43:12;8.90;;;1.65;;
11962;SDS011;62678;52.130;5.584;2022-10-03T13:45:46;7.18;;;1.80;;
11962;SDS011;62678;52.130;5.584;2022-10-03T13:48:16;9.00;;;1.90;;
11962;SDS011;62678;52.130;5.584;2022-10-03T13:50:47;7.70;;;1.83;;
11962;SDS011;62678;52.130;5.584;2022-10-03T13:53:19;8.02;;;1.90;;
11962;SDS011;62678;52.130;5.584;2022-10-03T13:56:06;15.10;;;2.17;;
11962;SDS011;62678;52.130;5.584;2022-10-03T13:58:39;8.25;;;2.00;;
11962;SDS011;62678;52.130;5.584;2022-10-03T14:01:17;10.15;;;1.90;;
11962;SDS011;62678;52.130;5.584;2022-10-03T14:06:58;9.35;;;1.95;;
11962;SDS011;62678;52.130;5.584;2022-10-03T14:12:40;11.63;;;2.03;;
11962;SDS011;62678;52.130;5.584;2022-10-03T14:15:19;11.05;;;1.92;;
11962;SDS011;62678;52.130;5.584;2022-10-03T14:17:55;9.18;;;1.77;;
11962;SDS011;62678;52.130;5.584;2022-10-03T14:20:30;10.02;;;1.70;;
11962;SDS011;62678;52.130;5.584;2022-10-03T14:23:12;6.93;;;2.00;;
11962;SDS011;62678;52.130;5.584;2022-10-03T14:25:53;9.50;;;2.15;;
11962;SDS011;62678;52.130;5.584;2022-10-03T14:28:26;10.95;;;2.53;;
11962;SDS011;62678;52.130;5.584;2022-10-03T14:30:58;12.88;;;2.17;;
11962;SDS011;62678;52.130;5.584;2022-10-03T14:33:33;13.45;;;2.80;;
11962;SDS011;62678;52.130;5.584;2022-10-03T14:36:10;10.25;;;2.42;;
11962;SDS011;62678;52.130;5.584;2022-10-03T14:39:01;10.05;;;2.30;;
11962;SDS011;62678;52.130;5.584;2022-10-03T14:41:46;14.90;;;3.25;;
11962;SDS011;62678;52.130;5.584;2022-10-03T14:44:26;10.63;;;2.20;;
11962;SDS011;62678;52.130;5.584;2022-10-03T14:47:09;11.43;;;2.13;;
11962;SDS011;62678;52.130;5.584;2022-10-03T14:49:40;9.57;;;1.92;;
11962;SDS011;62678;52.130;5.584;2022-10-03T14:52:16;11.18;;;1.80;;
11962;SDS011;62678;52.130;5.584;2022-10-03T14:54:50;12.40;;;2.05;;
11962;SDS011;62678;52.130;5.584;2022-10-03T14:57:22;12.20;;;2.03;;
11962;SDS011;62678;52.130;5.584;2022-10-03T14:59:56;9.07;;;1.90;;
11962;SDS011;62678;52.130;5.584;2022-10-03T15:02:25;10.00;;;2.05;;
11962;SDS011;62678;52.130;5.584;2022-10-03T15:04:56;9.85;;;2.50;;
11962;SDS011;62678;52.130;5.584;2022-10-03T15:07:32;12.57;;;2.10;;
11962;SDS011;62678;52.130;5.584;2022-10-03T15:10:01;11.40;;;2.47;;
11962;SDS011;62678;52.130;5.584;2022-10-03T15:12:30;9.10;;;1.92;;
11962;SDS011;62678;52.130;5.584;2022-10-03T15:15:00;15.15;;;3.10;;
11962;SDS011;62678;52.130;5.584;2022-10-03T15:17:31;12.77;;;2.83;;
11962;SDS011;62678;52.130;5.584;2022-10-03T15:20:02;9.40;;;2.03;;
11962;SDS011;62678;52.130;5.584;2022-10-03T15:22:31;12.43;;;2.53;;
11962;SDS011;62678;52.130;5.584;2022-10-03T15:25:02;12.50;;;2.95;;
11962;SDS011;62678;52.130;5.584;2022-10-03T15:27:31;12.13;;;2.08;;
11962;SDS011;62678;52.130;5.584;2022-10-03T15:30:01;12.20;;;2.40;;
11962;SDS011;62678;52.130;5.584;2022-10-03T15:32:32;9.30;;;2.03;;
11962;SDS011;62678;52.130;5.584;2022-10-03T15:35:03;9.65;;;2.40;;
11962;SDS011;62678;52.130;5.584;2022-10-03T15:37:31;8.07;;;2.78;;
11962;SDS011;62678;52.130;5.584;2022-10-03T15:40:03;12.10;;;2.50;;
11962;SDS011;62678;52.130;5.584;2022-10-03T15:42:39;11.10;;;3.28;;
11962;SDS011;62678;52.130;5.584;2022-10-03T15:45:16;12.07;;;2.70;;
11962;SDS011;62678;52.130;5.584;2022-10-03T15:47:44;12.95;;;2.58;;
11962;SDS011;62678;52.130;5.584;2022-10-03T15:50:17;9.20;;;2.58;;
11962;SDS011;62678;52.130;5.584;2022-10-03T15:52:49;10.13;;;2.78;;
11962;SDS011;62678;52.130;5.584;2022-10-03T15:55:18;10.60;;;2.85;;
11962;SDS011;62678;52.130;5.584;2022-10-03T15:57:51;9.35;;;2.60;;
11962;SDS011;62678;52.130;5.584;2022-10-03T16:00:25;11.77;;;2.50;;
11962;SDS011;62678;52.130;5.584;2022-10-03T16:02:56;10.57;;;2.30;;
11962;SDS011;62678;52.130;5.584;2022-10-03T16:05:31;13.10;;;2.83;;
11962;SDS011;62678;52.130;5.584;2022-10-03T16:08:01;11.02;;;2.60;;
11962;SDS011;62678;52.130;5.584;2022-10-03T16:10:33;8.93;;;2.30;;
11962;SDS011;62678;52.130;5.584;2022-10-03T16:13:05;13.27;;;2.45;;
11962;SDS011;62678;52.130;5.584;2022-10-03T16:15:59;10.82;;;2.80;;
11962;SDS011;62678;52.130;5.584;2022-10-03T16:21:28;15.18;;;2.90;;
11962;SDS011;62678;52.130;5.584;2022-10-03T16:24:05;12.70;;;2.70;;
11962;SDS011;62678;52.130;5.584;2022-10-03T16:26:43;14.85;;;3.15;;
11962;SDS011;62678;52.130;5.584;2022-10-03T16:29:17;10.77;;;2.92;;
11962;SDS011;62678;52.130;5.584;2022-10-03T16:31:48;8.80;;;3.10;;
11962;SDS011;62678;52.130;5.584;2022-10-03T16:34:18;12.57;;;3.00;;
11962;SDS011;62678;52.130;5.584;2022-10-03T16:36:50;19.30;;;4.13;;
11962;SDS011;62678;52.130;5.584;2022-10-03T16:39:20;14.07;;;3.70;;
11962;SDS011;62678;52.130;5.584;2022-10-03T16:41:50;14.55;;;3.10;;
11962;SDS011;62678;52.130;5.584;2022-10-03T16:44:21;12.48;;;3.63;;
11962;SDS011;62678;52.130;5.584;2022-10-03T16:46:49;8.15;;;2.97;;
11962;SDS011;62678;52.130;5.584;2022-10-03T16:49:28;12.63;;;3.70;;
11962;SDS011;62678;52.130;5.584;2022-10-03T16:52:21;12.65;;;3.50;;
11962;SDS011;62678;52.130;5.584;2022-10-03T16:54:55;11.35;;;3.28;;
11962;SDS011;62678;52.130;5.584;2022-10-03T16:57:28;13.30;;;3.05;;
11962;SDS011;62678;52.130;5.584;2022-10-03T16:59:58;12.63;;;3.47;;
11962;SDS011;62678;52.130;5.584;2022-10-03T17:02:30;11.07;;;3.35;;
11962;SDS011;62678;52.130;5.584;2022-10-03T17:04:59;13.13;;;3.50;;
11962;SDS011;62678;52.130;5.584;2022-10-03T17:07:34;12.32;;;3.60;;
11962;SDS011;62678;52.130;5.584;2022-10-03T17:10:05;12.30;;;3.65;;
11962;SDS011;62678;52.130;5.584;2022-10-03T17:12:46;14.40;;;4.00;;
11962;SDS011;62678;52.130;5.584;2022-10-03T17:15:17;11.52;;;3.67;;
11962;SDS011;62678;52.130;5.584;2022-10-03T17:17:47;14.98;;;4.30;;
11962;SDS011;62678;52.130;5.584;2022-10-03T17:20:21;16.98;;;4.47;;
11962;SDS011;62678;52.130;5.584;2022-10-03T17:23:01;23.88;;;5.25;;
11962;SDS011;62678;52.130;5.584;2022-10-03T17:25:35;9.93;;;4.47;;
11962;SDS011;62678;52.130;5.584;2022-10-03T17:28:08;12.82;;;4.25;;
11962;SDS011;62678;52.130;5.584;2022-10-03T17:30:41;16.25;;;5.05;;
11962;SDS011;62678;52.130;5.584;2022-10-03T17:33:12;14.70;;;4.45;;
11962;SDS011;62678;52.130;5.584;2022-10-03T17:35:48;10.48;;;4.90;;
11962;SDS011;62678;52.130;5.584;2022-10-03T17:38:28;12.45;;;4.85;;
11962;SDS011;62678;52.130;5.584;2022-10-03T17:41:11;30.23;;;15.35;;
11962;SDS011;62678;52.130;5.584;2022-10-03T17:43:42;18.65;;;7.07;;
11962;SDS011;62678;52.130;5.584;2022-10-03T17:46:15;16.48;;;6.03;;
11962;SDS011;62678;52.130;5.584;2022-10-03T17:48:47;14.43;;;6.25;;
11962;SDS011;62678;52.130;5.584;2022-10-03T17:51:27;19.38;;;8.35;;
11962;SDS011;62678;52.130;5.584;2022-10-03T17:53:58;17.00;;;8.60;;
11962;SDS011;62678;52.130;5.584;2022-10-03T17:56:28;21.73;;;9.38;;
11962;SDS011;62678;52.130;5.584;2022-10-03T17:58:59;24.27;;;9.40;;
11962;SDS011;62678;52.130;5.584;2022-10-03T18:01:33;22.75;;;9.32;;
11962;SDS011;62678;52.130;5.584;2022-10-03T18:04:05;21.98;;;9.57;;
11962;SDS011;62678;52.130;5.584;2022-10-03T18:06:43;19.48;;;9.80;;
11962;SDS011;62678;52.130;5.584;2022-10-03T18:09:37;17.17;;;8.27;;
11962;SDS011;62678;52.130;5.584;2022-10-03T18:12:13;26.85;;;9.43;;
11962;SDS011;62678;52.130;5.584;2022-10-03T18:14:53;17.88;;;9.02;;
11962;SDS011;62678;52.130;5.584;2022-10-03T18:17:47;16.77;;;9.32;;
11962;SDS011;62678;52.130;5.584;2022-10-03T18:20:38;23.15;;;9.75;;
11962;SDS011;62678;52.130;5.584;2022-10-03T18:23:10;18.58;;;9.45;;
11962;SDS011;62678;52.130;5.584;2022-10-03T18:25:49;21.08;;;9.95;;
11962;SDS011;62678;52.130;5.584;2022-10-03T18:28:26;21.98;;;10.23;;
11962;SDS011;62678;52.130;5.584;2022-10-03T18:30:57;18.77;;;9.55;;
11962;SDS011;62678;52.130;5.584;2022-10-03T18:33:27;30.52;;;14.35;;
11962;SDS011;62678;52.130;5.584;2022-10-03T18:35:57;28.30;;;15.15;;
11962;SDS011;62678;52.130;5.584;2022-10-03T18:38:37;27.33;;;13.68;;
11962;SDS011;62678;52.130;5.584;2022-10-03T18:41:11;25.13;;;12.27;;
11962;SDS011;62678;52.130;5.584;2022-10-03T18:43:42;24.40;;;12.52;;
11962;SDS011;62678;52.130;5.584;2022-10-03T18:46:12;29.02;;;12.02;;
11962;SDS011;62678;52.130;5.584;2022-10-03T18:48:45;21.90;;;11.30;;